首页
METAR-TAF:

METAR-TAF

机场 :

Grise Fiord, 努那武特, 加拿大

纬度: 76-25N, 经度: 082-54W, 海拔: 45米

当前天气观测

该预报发布于58分钟前的21:00 UTC
风速2节,风向多变
温度 -13°C
湿度 78%
气压 1011 hPa
能見度: 32.2公里
少量云层高于2500英尺
少量云层高于4000英尺
散云层高于6000英尺
散云层高于13000英尺
多云层高于22000英尺

METAR: CWGZ 242100Z VRB02KT 20SM FEW025 FEW040 SCT060 SCT130 BKN220 M13/M16 A2985 RMK SC1SC1SC2AC1CI2 SC TR CC EMBD SLP117

时间: 17:58 (21:58 UTC)


TAF: 丢失

超过4000个机场的气象观测和天气预报(METAR&TAF报告)。

可查询的气象台以黄色和红色小点在地图上表示。

将鼠标移到小点上方,可查看气象台名称。

然后点击查看天气观测和预报。

如需切换地图:点击带黑十字的绿色按钮放大地图;点击带横线的绿色按钮缩小地图;或者点击绿色箭头查看邻近地区的地图。


METAR-TAF: